ADDS METAR Data INFO
IDs: Format: Raw Decoded Include TAF

Data at: 0744 UTC 21 Jul 2018

PAGH 210656Z AUTO 34003KT 10SM OVC055 15/11 A3025 RMK AO2 SLP248 T01500106
PAGH 210556Z AUTO 00000KT 10SM OVC055 16/11 A3025 RMK AO2 SLP247 T01560106 10161 20144 56002
PAGH 210456Z AUTO 00000KT 10SM OVC055 16/11 A3025 RMK AO2 SLP248 T01610106
PAGH 210356Z AUTO 00000KT 10SM OVC055 16/11 A3025 RMK AO2 SLP249 T01560106
PAGH 210256Z AUTO 00000KT 10SM FEW024 OVC060 16/11 A3026 RMK AO2 SLP250 T01560106 50000
PAGH 210156Z AUTO 30003KT 10SM SCT024 OVC055 16/10 A3026 RMK AO2 SLP251 T01560100
PAGH 210056Z AUTO 00000KT 10SM BKN024 OVC060 15/10 A3026 RMK AO2 SLP250 T01500100
PAGH 202356Z AUTO 29003KT 10SM SCT030 OVC055 15/09 A3026 RMK AO2 SLP251 T01500094 10150 20106 56001
PAGH 202256Z AUTO 00000KT 10SM SCT020 BKN036 OVC060 14/09 A3026 RMK AO2 SLP253 T01440094
PAGH 202245Z AUTO 00000KT 10SM BKN020 OVC038 14/09 A3026 RMK AO2
PAGH 202237Z AUTO 00000KT 10SM SCT022 BKN038 OVC060 14/09 A3026 RMK AO2
PAGH 202156Z AUTO 00000KT 10SM BKN019 OVC025 13/09 A3026 RMK AO2 SLP250 T01330094
PAGH 202056Z AUTO 00000KT 10SM OVC017 13/09 A3026 RMK AO2 SLP252 T01280094 53001
PAGH 201956Z AUTO 00000KT 10SM OVC015 12/09 A3025 RMK AO2 SLP250 T01220094
PAGH 201925Z AUTO 00000KT 10SM SCT008 OVC017 12/10 A3026 RMK AO2
PAGH 201906Z AUTO 00000KT 10SM BKN008 OVC019 11/09 A3026 RMK AO2
PAGH 201856Z AUTO 00000KT 10SM SCT008 OVC019 11/09 A3026 RMK AO2 SLP252 T01110094
PAGH 201842Z AUTO 00000KT 10SM SCT008 OVC019 11/09 A3026 RMK AO2
PAGH 201829Z AUTO 00000KT 10SM BKN008 BKN019 OVC024 11/09 A3026 RMK AO2
PAGH 201819Z AUTO 00000KT 10SM SCT006 OVC024 11/09 A3026 RMK AO2
PAGH 201756Z AUTO 00000KT 8SM OVC022 11/09 A3026 RMK AO2 RAB22E39 SLP252 P0000 60000 T01060094 10111 20106 52000
PAGH 201656Z AUTO 17004KT 10SM OVC024 11/09 A3026 RMK AO2 SLP252 T01060094
PAGH 201556Z AUTO 20003KT 10SM OVC020 11/09 A3026 RMK AO2 SLP252 T01110089
PAGH 201456Z AUTO 00000KT 10SM OVC024 11/09 A3026 RMK AO2 SLP251 T01110094 53001
PAGH 201415Z AUTO 00000KT 10SM OVC028 11/09 A3026 RMK AO2
PAGH 201356Z AUTO 00000KT 10SM OVC030 11/09 A3026 RMK AO2 SLP251 T01060089
PAGH 201256Z AUTO 20003KT 10SM OVC030 11/09 A3025 RMK AO2 SLP249 T01060089
PAGH 201156Z AUTO 22004KT 10SM OVC030 11/09 A3025 RMK AO2 SLP250 70021 T01110089 10128 20111 53001
PAGH 201056Z AUTO 20004KT 10SM OVC030 11/09 A3025 RMK AO2 SLP250 T01110089
PAGH 200956Z AUTO 22004KT 10SM OVC032 12/09 A3025 RMK AO2 SLP248 T01170089
PAGH 200856Z AUTO 00000KT 10SM OVC034 12/09 A3025 RMK AO2 SLP249 T01220089 401390089 51007
PAGH 200756Z AUTO 00000KT 10SM OVC034 12/09 A3025 RMK AO2 SLP247 T01220094
PAGH 200656Z AUTO 00000KT 10SM OVC034 13/09 A3024 RMK AO2 SLP244 T01280089
PAGH 200556Z AUTO 32004KT 10SM OVC034 13/08 A3023 RMK AO2 SLP241 T01280083 10139 20117 50002
PAGH 200504Z AUTO 29004KT 10SM FEW025 SCT030 OVC036 13/08 A3024 RMK AO2
PAGH 200456Z AUTO 28006KT 10SM BKN029 OVC035 13/08 A3023 RMK AO2 SLP243 T01330078
PAGH 200421Z AUTO VRB03KT 10SM FEW022 BKN028 OVC037 13/09 A3023 RMK AO2
PAGH 200356Z AUTO VRB05KT 10SM OVC037 13/08 A3023 RMK AO2 SLP243 T01330083
PAGH 200256Z AUTO 26008KT 10SM FEW028 SCT048 13/07 A3022 RMK AO2 SLP239 T01330072 53003
PAGH 200156Z AUTO 27010KT 10SM SCT026 SCT048 14/08 A3021 RMK AO2 SLP236 T01390078
PAGH 200056Z AUTO 25007KT 10SM SCT019 BKN031 BKN045 13/08 A3021 RMK AO2 SLP236 T01280083
PAGH 200054Z AUTO 25006KT 10SM SCT021 BKN031 13/08 A3021 RMK AO2
PAGH 192356Z AUTO 27007KT 10SM BKN015 BKN020 OVC070 12/09 A3021 RMK AO2 RAE43 SLP235 P0000 60007 T01170089 10117 20094 51012
PAGH 192312Z AUTO 26005KT 10SM -RA SCT012 BKN017 OVC026 11/09 A3020 RMK AO2 P0000
PAGH 192256Z AUTO 25007KT 7SM -RA BKN012 BKN032 OVC039 11/09 A3020 RMK AO2 SLP233 P0000 T01060089
PAGH 192253Z AUTO 24006KT 10SM -RA BKN012 BKN031 OVC038 11/09 A3020 RMK AO2 P0000
PAGH 192238Z AUTO 26006KT 10SM -RA FEW017 BKN031 BKN039 11/09 A3020 RMK AO2 P0000
PAGH 192156Z AUTO 28006KT 10SM -RA FEW010 BKN015 OVC021 11/09 A3019 RMK AO2 SLP229 P0000 T01060089
PAGH 192140Z AUTO 28006KT 3SM -RA BR SCT014 BKN022 OVC028 10/08 A3019 RMK AO2 P0000
PAGH 192056Z AUTO 27006KT 10SM -RA FEW008 OVC030 10/08 A3018 RMK AO2 SLP223 P0002 60007 T01000083 51009
PAGH 192052Z AUTO 27005KT 10SM -RA FEW008 SCT013 OVC030 10/08 A3018 RMK AO2 P0002
PAGH 192024Z AUTO VRB06KT 10SM -RA SCT009 BKN016 OVC034 10/09 A3016 RMK AO2 P0001
PAGH 192013Z AUTO 25006KT 10SM -RA FEW007 SCT012 OVC034 10/09 A3016 RMK AO2 P0001
PAGH 191956Z AUTO 26004KT 10SM -RA OVC036 10/08 A3016 RMK AO2 SLP219 P0002 T01000083